Nearby METAR Reports - 80 Mile Radius
Meteorological Terminal Air Report (METAR)


KBWI - Balto/Wash Intl Airport, Maryland
Distance from station: S 5mi, 8km
Updated: Tue, 25-Apr-2017 11:54pm EDT
Light rain, Mist, Overcast
Light rain, Mist, Overcast
 Wind from NNE
Wind: NNE 7 mph , 11 km/h
Temperature: 57°F , 14°C
Dew Point: 57°F , 14°C
Humidity: 100%
Barometer: 29.73 inHg , 1006.8 hPa
Summary: Light rain, Mist
Clouds: Overcast
Visibility: 2 1/2 miles , 2 km
Cloud details: Overcast 500 ft
2017/04/26 03:54 KBWI 260354Z 02006KT 2 1/2SM -RA BR OVC005 14/14 A2973 RMK AO2 SLP067 P0005 T01390139
KDMH - Baltimore/Dwntwn, Maryland
Distance from station: NE 5mi, 9km
Updated: Tue, 25-Apr-2017 10:54pm EDT

 
Temperature: 59°F , 15°C
Dew Point: 55°F , 13°C
Humidity: 88%
Barometer: 29.74 inHg , 1007.1 hPa
2017/04/26 02:54 KDMH 260254Z AUTO 15/13 A2974 RMK AO1 SLP071 P0010 60011 T01500128 50003
KFME - Fort Meade/Tipton AAF, Maryland
Distance from station: SSW 11mi, 18km
Updated: Tue, 25-Apr-2017 11:39pm EDT
Overcast
Overcast
 Wind from calm
Wind: Calm
Temperature: 55°F , 13°C
Dew Point: 54°F , 12°C
Humidity: 94%
Barometer: 29.76 inHg , 1007.8 hPa
Clouds: Overcast
Visibility: 4 miles , 6 km
Cloud details: Mostly cloudy 600 ft
Overcast 1000 ft
2017/04/26 03:39 KFME 260339Z AUTO 00000KT 4SM BKN006 OVC010 13/12 A2976 RMK AO1
 
KMTN - Balto/Martin State Airport, Maryland
Distance from station: ENE 16mi, 26km
Updated: Tue, 25-Apr-2017 11:39pm EDT
Overcast
Overcast
 Wind from NNW
Wind: NNW 3 mph , 6 km/h
Temperature: 57°F , 14°C
Dew Point: 57°F , 14°C
Humidity: 100%
Barometer: 29.75 inHg , 1007.5 hPa
Clouds: Overcast
Visibility: 10 miles , 16 km
Cloud details: Overcast 500 ft
2017/04/26 03:39 KMTN 260339Z AUTO 34003KT 10SM OVC005 14/14 A2975 RMK AO2
KCGS - College Park Airport, Maryland
Distance from station: SSW 21mi, 34km
Updated: Tue, 25-Apr-2017 11:41pm EDT
Overcast
Overcast
 Wind from N
Wind: N 3 mph , 6 km/h
Temperature: 57°F , 14°C
Dew Point: 55°F , 13°C
Humidity: 94%
Barometer: 29.73 inHg , 1006.8 hPa
Clouds: Overcast
Visibility: 10 miles , 16 km
Cloud details: Overcast 800 ft
2017/04/26 03:41 KCGS 260341Z AUTO 35003KT 10SM OVC008 14/13 A2973 RMK AO1 T01380130
KNAK - Annapolis/Naval Academy, Maryland
Distance from station: SE 21mi, 34km
Updated: Tue, 25-Apr-2017 11:54pm EDT
Light rain, Mist, Overcast
Light rain, Mist, Overcast
 Wind from N
Wind: N 9 mph , 15 km/h
Temperature: 59°F , 15°C
Dew Point: 55°F , 13°C
Humidity: 88%
Barometer: 29.71 inHg , 1006.1 hPa
Summary: Light rain, Mist
Clouds: Overcast
Visibility: 6 miles , 10 km
Cloud details: Overcast 800 ft
2017/04/26 03:54 KNAK 260354Z AUTO 01008KT 6SM -RA BR OVC008 15/13 A2971 RMK AO2 RAE12B31 SLP063 P0002 T01500133 $
 
KGAI - Gaithersburg/Montgomery Co Airpark, Maryland
Distance from station: W 26mi, 41km
Updated: Fri, 24-Mar-2017 10:35am EDT
NOT Current

 
2017/03/24 14:35 KGAI 241435Z AUTO RMK AO1
KW29 - Stevensville/Bay Bridge Airport, Maryland
Distance from station: SE 26mi, 42km
Updated: Tue, 25-Apr-2017 11:35pm EDT
Mist, Overcast
Mist, Overcast
 Wind from NNE
Wind: NNE 7 mph , 11 km/h
Temperature: 57°F , 14°C
Dew Point: 55°F , 13°C
Humidity: 94%
Barometer: 29.72 inHg , 1006.4 hPa
Summary: Mist
Clouds: Overcast
Visibility: 5 miles , 8 km
Cloud details: Overcast 500 ft
2017/04/26 03:35 KW29 260335Z AUTO 03006KT 5SM BR OVC005 14/13 A2972 RMK AO2 TSNO
KDMW - Carroll Co Regional Airport, Maryland
Distance from station: NNW 30mi, 48km
Updated: Tue, 25-Apr-2017 11:40pm EDT
Heavy drizzle, Overcast
Heavy drizzle, Overcast
 Wind from N
Wind: N 3 mph , 6 km/h
Temperature: 55°F , 13°C
Dew Point: 55°F , 13°C
Humidity: 100%
Barometer: 29.77 inHg , 1008.1 hPa
Summary: Heavy Drizzle
Clouds: Overcast
Visibility: 2 1/2 miles , 2 km
Cloud details: Overcast 500 ft
2017/04/26 03:40 KDMW 260340Z AUTO 01003KT 2 1/2SM +DZ OVC005 13/13 A2977 RMK AO2 P0001
 
KADW - Andrews AFB, Maryland
Distance from station: SSW 30mi, 49km
Updated: Tue, 25-Apr-2017 11:51pm EDT
Light rain, Overcast
Light rain, Overcast
 Wind from N
Wind: N 7 mph , 11 km/h
Temperature: 57°F , 14°C
Dew Point: 55°F , 13°C
Humidity: 94%
Barometer: 29.72 inHg , 1006.4 hPa
Summary: Light rain
Clouds: Overcast
Visibility: 9 miles , 14 km
Cloud details: Overcast 500 ft
2017/04/26 03:51 KADW 260351Z AUTO 36006KT 9SM -RA OVC005 14/13 A2972 RMK AO2 SLP071
KAPG - Aberdeen/Phillip AAF, Maryland
Distance from station: ENE 32mi, 52km
Updated: Tue, 25-Apr-2017 11:01pm EDT
Light rain, Overcast
Light rain, Overcast
 Wind from ENE
Wind: ENE 12 mph , 19 km/h
Temperature: 57°F , 14°C
Dew Point: 55°F , 13°C
Humidity: 94%
Barometer: 29.76 inHg , 1007.8 hPa
Summary: Light rain
Clouds: Overcast
Visibility: 10 miles , 16 km
Cloud details: Overcast 500 ft
2017/04/26 03:01 KAPG 260301Z AUTO 06010KT 10SM -RA OVC005 14/13 A2976 RMK AO2 RAB01 SLP081
KDCA - Washington/Natl Airport, Washington D.C.
Distance from station: SW 32mi, 52km
Updated: Tue, 25-Apr-2017 11:52pm EDT
Light drizzle, Mist, Overcast
Light drizzle, Mist, Overcast
 Wind from N
Wind: N 9 mph , 15 km/h
Temperature: 59°F , 15°C
Dew Point: 57°F , 14°C
Humidity: 94%
Barometer: 29.74 inHg , 1007.1 hPa
Summary: Light drizzle, Mist
Clouds: Overcast
Visibility: 3 miles , 5 km
Cloud details: Overcast 600 ft
2017/04/26 03:52 KDCA 260352Z 01008KT 3SM -DZ BR OVC006 15/14 A2974 RMK AO2 SLP070 P0000 T01500144
 
KFDK - Frederick Municipal Airport, Maryland
Distance from station: WNW 38mi, 61km
Updated: Tue, 25-Apr-2017 11:35pm EDT
Mist, Overcast
Mist, Overcast
 Wind from N
Wind: N 8 mph , 13 km/h
Barometer: 29.79 inHg , 1008.8 hPa
Summary: Mist
Clouds: Overcast
Visibility: 2 miles , 3 km
Cloud details: Overcast 500 ft
2017/04/26 03:35 KFDK 260335Z AUTO 01007KT 2SM BR OVC005 A2979 RMK AO2
KDAA - Fort Belvoir/Davison AAF, Virginia
Distance from station: SW 44mi, 71km
Updated: Tue, 25-Apr-2017 11:52pm EDT
Overcast
Overcast
 Wind from N
Wind: N 3 mph , 6 km/h
Temperature: 57°F , 14°C
Dew Point: 55°F , 13°C
Humidity: 94%
Barometer: 29.73 inHg , 1006.8 hPa
Clouds: Overcast
Visibility: 10 miles , 16 km
Cloud details: Mostly cloudy 600 ft
Overcast 1100 ft
2017/04/26 03:52 KDAA 260352Z AUTO 35003KT 10SM BKN006 OVC011 14/13 A2973 RMK AO2 RAE27DZB27E32 SLP071
KESN - Easton/Newnam Field Airport, Maryland
Distance from station: SE 45mi, 73km
Updated: Tue, 25-Apr-2017 11:41pm EDT
Mist, Overcast
Mist, Overcast
 Wind from ENE
Wind: ENE 10 mph , 17 km/h
Temperature: 59°F , 15°C
Dew Point: 57°F , 14°C
Humidity: 94%
Barometer: 29.73 inHg , 1006.8 hPa
Summary: Mist
Clouds: Overcast
Visibility: 2 1/2 miles , 2 km
Cloud details: Overcast 300 ft
2017/04/26 03:41 KESN 260341Z AUTO 06009KT 2 1/2SM BR OVC003 15/14 A2973 RMK AO2 T01450136
 
KIAD - Wash DC/Dulles Intl, Virginia
Distance from station: WSW 45mi, 73km
Updated: Tue, 25-Apr-2017 11:52pm EDT
Light drizzle, Mist, Overcast
Light drizzle, Mist, Overcast
 Wind from N
Wind: N 10 mph , 17 km/h
Temperature: 57°F , 14°C
Dew Point: 55°F , 13°C
Humidity: 94%
Barometer: 29.75 inHg , 1007.5 hPa
Summary: Light drizzle, Mist
Clouds: Overcast
Visibility: 2 1/2 miles , 2 km
Cloud details: Mostly cloudy 500 ft
Overcast 1000 ft
2017/04/26 03:52 KIAD 260352Z 36009KT 2 1/2SM -DZ BR BKN005 OVC010 14/13 A2975 RMK AO2 DZE18B52 SLP072 P0000 T01390128
KJYO - Leesburg/Godfrey Field, Virginia
Distance from station: WSW 48mi, 77km
Updated: Tue, 25-Apr-2017 11:35pm EDT
Mist, Overcast
Mist, Overcast
 Wind from NNE
Wind: NNE 9 mph , 15 km/h, Gust: 16 mph , 26 km/h
Temperature: 57°F , 14°C
Dew Point: 57°F , 14°C
Humidity: 100%
Barometer: 29.77 inHg , 1008.1 hPa
Summary: Mist
Clouds: Overcast
Visibility: 4 miles , 6 km
Cloud details: Overcast 400 ft
2017/04/26 03:35 KJYO 260335Z AUTO 02008G14KT 4SM BR OVC004 14/14 A2977 RMK AO2 P0001
KTHV - York Airport, Pennsylvania
Distance from station: NNW 48mi, 77km
Updated: Tue, 25-Apr-2017 11:53pm EDT
Overcast
Overcast
 Wind from ENE
Wind: ENE 8 mph , 13 km/h
Temperature: 55°F , 13°C
Dew Point: 55°F , 13°C
Humidity: 100%
Barometer: 29.77 inHg , 1008.1 hPa
Clouds: Overcast
Visibility: 10 miles , 16 km
Cloud details: Overcast 800 ft
2017/04/26 03:53 KTHV 260353Z AUTO 06007KT 10SM OVC008 13/13 A2977 RMK AO2 SLP083 T01330128
 
KRSP - Naval Support Fac Thurmont, Maryland, USA
Distance from station: NW 50mi, 81km
Updated: Tue, 25-Apr-2017 11:01pm EDT
Light rain, Overcast
Light rain, Overcast
 Wind from varies
Wind: varies 7 mph , 11 km/h
Temperature: 52°F , 11°C
Barometer: 29.80 inHg , 1009.1 hPa
Summary: Light rain
Clouds: Overcast
Visibility: 3/4 mile , 5 km
Cloud details: Overcast 300 ft
2017/04/26 03:01 KRSP 260301Z AUTO VRB06KT 3/4SM -RA VV003 11/ A2980 RMK AO2 P0001 $
KRYT - Fountain Dale Airport, Pennsylvania
Distance from station: NW 52mi, 84km
Updated: Tue, 25-Apr-2017 11:33pm EDT
Light rain, Mist, Overcast
Light rain, Mist, Overcast
 Wind from NE
Wind: NE 7 mph , 11 km/h
Temperature: 55°F , 13°C
Dew Point: 55°F , 13°C
Humidity: 100%
Barometer: 29.77 inHg , 1008.1 hPa
Summary: Light rain, Mist
Clouds: Overcast
Visibility: 2 miles , 3 km
Cloud details: Mostly cloudy 400 ft
Overcast 900 ft
2017/04/26 03:33 KRYT 260333Z AUTO 04006KT 2SM -RA BR BKN004 OVC009 13/13 A2977 RMK AO2 P0002 TSNO $
KHEF - Manassas Municipal Airport, Virginia
Distance from station: SW 57mi, 91km
Updated: Tue, 25-Apr-2017 10:56pm EDT
Mist
Mist
 Wind from N
Wind: N 7 mph , 11 km/h
Temperature: 57°F , 14°C
Dew Point: 57°F , 14°C
Humidity: 100%
Barometer: 29.76 inHg , 1007.8 hPa
Summary: Mist
Visibility: 3 miles , 5 km
2017/04/26 02:56 KHEF 260256Z 36006KT 3SM BR 14/14 A2976 RMK AO2 SLP088 6//// T01440139 50007 PNO $
 
KNYG - Quantico Marine Corps Air Fac, Virginia
Distance from station: SSW 60mi, 96km
Updated: Tue, 25-Apr-2017 10:56pm EDT
Overcast
Overcast
 Wind from N
Wind: N 9 mph , 15 km/h
Temperature: 59°F , 15°C
Dew Point: 57°F , 14°C
Humidity: 94%
Barometer: 29.75 inHg , 1007.5 hPa
Clouds: Overcast
Visibility: 10 miles , 16 km
Cloud details: Overcast 800 ft
2017/04/26 02:56 KNYG 260256Z AUTO 01008KT 10SM OVC008 15/14 A2975 RMK AO2 SLP075 T01500144 51008
KCGE - Cambridge-Dorchester Reg Airport, Maryland
Distance from station: SE 60mi, 97km
Updated: Tue, 25-Apr-2017 11:40pm EDT
Mist, Overcast
Mist, Overcast
 Wind from NNE
Wind: NNE 10 mph , 17 km/h
Temperature: 59°F , 15°C
Dew Point: 59°F , 15°C
Humidity: 100%
Barometer: 29.68 inHg , 1005.1 hPa
Summary: Mist
Clouds: Overcast
Visibility: 2 miles , 3 km
Cloud details: Overcast 300 ft
2017/04/26 03:40 KCGE 260340Z AUTO 02009KT 2SM BR OVC003 15/15 A2968 RMK A01
K2W6 - St Marys Co Reg Airport, Maryland
Distance from station: SSE 64mi, 103km
Updated: Tue, 25-Apr-2017 11:41pm EDT
Overcast
Overcast
 Wind from N
Wind: N 6 mph , 9 km/h
Temperature: 57°F , 14°C
Dew Point: 55°F , 13°C
Humidity: 94%
Barometer: 29.71 inHg , 1006.1 hPa
Clouds: Overcast
Visibility: 1 1/4 miles , 2 km
Cloud details: Overcast 200 ft
2017/04/26 03:41 K2W6 260341Z AUTO 35005KT 1 1/4SM OVC002 14/13 A2971 RMK AO1
 
KHGR - Hagerstown Reg Airport, Maryland
Distance from station: WNW 64mi, 103km
Updated: Tue, 25-Apr-2017 11:53pm EDT
Overcast
Overcast
 Wind from N
Wind: N 10 mph , 17 km/h
Temperature: 55°F , 13°C
Dew Point: 55°F , 13°C
Humidity: 100%
Barometer: 29.77 inHg , 1008.1 hPa
Clouds: Overcast
Visibility: 8 miles , 13 km
Cloud details: Mostly cloudy 400 ft
Overcast 1600 ft
2017/04/26 03:53 KHGR 260353Z AUTO 35009KT 8SM BKN004 OVC016 13/13 A2977 RMK AO2 SLP091 T01330128
KLNS - Lancaster Airport, Pennsylvania
Distance from station: NNE 64mi, 104km
Updated: Tue, 25-Apr-2017 11:53pm EDT
Overcast
Overcast
 Wind from ENE
Wind: ENE 10 mph , 17 km/h
Temperature: 57°F , 14°C
Dew Point: 55°F , 13°C
Humidity: 94%
Barometer: 29.77 inHg , 1008.1 hPa
Clouds: Overcast
Visibility: 10 miles , 16 km
Cloud details: Overcast 900 ft
2017/04/26 03:53 KLNS 260353Z AUTO 06009KT 10SM OVC009 14/13 A2977 RMK AO2 RAE0257 SLP081 P0000 T01390133 TSNO
KILG - New Castle Airport, Wilmington, Delaware
Distance from station: ENE 66mi, 106km
Updated: Tue, 25-Apr-2017 11:51pm EDT
Overcast
Overcast
 Wind from NNE
Wind: NNE 16 mph , 26 km/h, Gust: 22 mph , 35 km/h
Temperature: 55°F , 13°C
Dew Point: 55°F , 13°C
Humidity: 100%
Barometer: 29.73 inHg , 1006.8 hPa
Clouds: Overcast
Visibility: 10 miles , 16 km
Cloud details: Overcast 500 ft
2017/04/26 03:51 KILG 260351Z 02014G19KT 10SM OVC005 13/13 A2973 RMK AO2 RAE0258 SLP067 P0000 T01330133
 
KDOV - Dover Air Force Base, Delaware
Distance from station: E 66mi, 107km
Updated: Tue, 25-Apr-2017 11:45pm EDT
Light drizzle, Overcast
Light drizzle, Overcast
 Wind from N
Wind: N 12 mph , 19 km/h
Temperature: 57°F , 14°C
Dew Point: 57°F , 14°C
Humidity: 100%
Barometer: 29.68 inHg , 1005.1 hPa
Summary: Light Drizzle
Clouds: Overcast
Visibility: 8 miles , 13 km
Cloud details: Overcast 500 ft
2017/04/26 03:45 KDOV 260345Z 35010KT 8SM R01/5500FT -DZ OVC005 14/14 A2968 RMK AO2A RAE34DZB45 SLP054 $
KMDT - Harrisburg Intl Airport, Middletown, Pennsylvania
Distance from station: N 67mi, 107km
Updated: Tue, 25-Apr-2017 10:56pm EDT
Overcast
Overcast
 Wind from ENE
Wind: ENE 10 mph , 17 km/h
Temperature: 57°F , 14°C
Dew Point: 55°F , 13°C
Humidity: 94%
Barometer: 29.79 inHg , 1008.8 hPa
Clouds: Overcast
Visibility: 9 miles , 14 km
Cloud details: Overcast 1000 ft
2017/04/26 02:56 KMDT 260256Z 07009KT 9SM OVC010 14/13 A2979 RMK AO2 DZE22 SLP089 P0000 60000 T01390128 50001 $
KMQS - Chester Co Carlson Airport, Coatesville, Pennsylvania
Distance from station: NE 68mi, 109km
Updated: Tue, 25-Apr-2017 11:35pm EDT
Light rain, Overcast
Light rain, Overcast
 Wind from NE
Wind: NE 6 mph , 9 km/h, Gust: 14 mph , 22 km/h
Temperature: 54°F , 12°C
Dew Point: 54°F , 12°C
Humidity: 100%
Barometer: 29.78 inHg , 1008.5 hPa
Summary: Light rain
Clouds: Overcast
Visibility: 4 miles , 6 km
Cloud details: Mostly cloudy 500 ft
Overcast 900 ft
2017/04/26 03:35 KMQS 260335Z AUTO 05005G12KT 4SM -RA BKN005 OVC009 12/12 A2978 RMK AO2
 
KCXY - Capital City Airport, Harrisburg, Pennsylvania
Distance from station: N 68mi, 110km
Updated: Tue, 25-Apr-2017 11:47pm EDT
Overcast
Overcast
 Wind from E
Wind: E 10 mph , 17 km/h
Temperature: 57°F , 14°C
Dew Point: 54°F , 12°C
Humidity: 88%
Barometer: 29.79 inHg , 1008.8 hPa
Clouds: Overcast
Visibility: 10 miles , 16 km
Cloud details: Overcast 1000 ft
2017/04/26 03:47 KCXY 260347Z AUTO 08009KT 10SM OVC010 14/12 A2979 RMK AO2 T01390117
KNHK - Patuxent River NAS, Maryland
Distance from station: SE 69mi, 111km
Updated: Tue, 25-Apr-2017 11:52pm EDT
Overcast
Overcast
 Wind from NNW
Wind: NNW 12 mph , 19 km/h
Temperature: 57°F , 14°C
Dew Point: 57°F , 14°C
Humidity: 100%
Barometer: 29.68 inHg , 1005.1 hPa
Clouds: Overcast
Visibility: 9 miles , 14 km
Cloud details: Overcast 300 ft
2017/04/26 03:52 KNHK 260352Z AUTO 34010KT 9SM OVC003 14/14 A2968 RMK AO2 SLP051 T01440144 $
KMRB - Eastern WV Reg Airport/Shepherd Field, Martinsburg, West Virginia
Distance from station: W 70mi, 112km
Updated: Tue, 25-Apr-2017 11:53pm EDT
Mist, Overcast
Mist, Overcast
 Wind from N
Wind: N 7 mph , 11 km/h
Temperature: 55°F , 13°C
Dew Point: 54°F , 12°C
Humidity: 94%
Barometer: 29.77 inHg , 1008.1 hPa
Summary: Mist
Clouds: Overcast
Visibility: 4 miles , 6 km
Cloud details: Overcast 500 ft
2017/04/26 03:53 KMRB 260353Z AUTO 01006KT 4SM BR OVC005 13/12 A2977 RMK AO2 SLP079 T01330122 TSNO
 
KHWY - Warrenton-Fauquier Airport, Warrenton, Virginia
Distance from station: SW 71mi, 114km
Updated: Tue, 25-Apr-2017 11:35pm EDT
Mist, Overcast
Mist, Overcast
 Wind from NNW
Wind: NNW 6 mph , 9 km/h
Temperature: 59°F , 15°C
Dew Point: 55°F , 13°C
Humidity: 88%
Barometer: 29.75 inHg , 1007.5 hPa
Summary: Mist
Clouds: Overcast
Visibility: 4 miles , 6 km
Cloud details: Overcast 500 ft
2017/04/26 03:35 KHWY 260335Z AUTO 34005KT 4SM BR OVC005 15/13 A2975 RMK AO2 T01480131
KRMN - Stafford Regional Airport, Virginia
Distance from station: SW 71mi, 114km
Updated: Tue, 25-Apr-2017 11:35pm EDT
Overcast
Overcast
 Wind from NNW
Wind: NNW 8 mph , 13 km/h
Temperature: 57°F , 14°C
Dew Point: 57°F , 14°C
Humidity: 100%
Barometer: 29.77 inHg , 1008.1 hPa
Clouds: Overcast
Visibility: 10 miles , 16 km
Cloud details: Overcast 600 ft
2017/04/26 03:35 KRMN 260335Z AUTO 34007KT 10SM OVC006 14/14 A2977 RMK AO2 T01380138
KNUI - Webster Naval, St Inigoes, Maryland
Distance from station: S 76mi, 123km
Updated: Tue, 25-Apr-2017 9:38pm EDT
NOT Current
Mist, Overcast
Mist, Overcast
 Wind from varies
Wind: varies 6 mph , 9 km/h
Temperature: 61°F , 16°C
Dew Point: 59°F , 15°C
Humidity: 94%
Barometer: 29.67 inHg , 1004.7 hPa
Summary: Mist
Clouds: Overcast
Visibility: 4 miles , 6 km
Cloud details: Overcast 400 ft
2017/04/26 01:38 KNUI 260138Z AUTO VRB05KT 4SM BR OVC004 16/15 A2967 RMK AO2 RAE31 P0001 T01560150
 
KEZF - Fredericksburg/Shan, Virginia
Distance from station: SSW 78mi, 126km
Updated: Tue, 25-Apr-2017 11:35pm EDT
Overcast
Overcast
 Wind from N
Wind: N 7 mph , 11 km/h
Temperature: 59°F , 15°C
Dew Point: 59°F , 15°C
Humidity: 100%
Barometer: 29.73 inHg , 1006.8 hPa
Clouds: Overcast
Visibility: 10 miles , 16 km
Cloud details: Overcast 600 ft
2017/04/26 03:35 KEZF 260335Z AUTO 35006KT 10SM OVC006 15/15 A2973 RMK AO2 T01470147
KOKV - Winchester Regional Airport, Virginia
Distance from station: W 78mi, 126km
Updated: Tue, 25-Apr-2017 11:35pm EDT
Mist, Overcast
Mist, Overcast
 Wind from calm
Wind: Calm
Temperature: 54°F , 12°C
Dew Point: 54°F , 12°C
Humidity: 100%
Barometer: 29.78 inHg , 1008.5 hPa
Summary: Mist
Clouds: Overcast
Visibility: 3 miles , 5 km
Cloud details: Overcast 400 ft
2017/04/26 03:35 KOKV 260335Z AUTO 00000KT 3SM BR OVC004 12/12 A2978 RMK AO2
KCJR - Culpeper Regional Airport, Virginia
Distance from station: SW 79mi, 128km
Updated: Tue, 25-Apr-2017 11:35pm EDT
Mist, Overcast
Mist, Overcast
 Wind from N
Wind: N 7 mph , 11 km/h
Temperature: 59°F , 15°C
Dew Point: 57°F , 14°C
Humidity: 94%
Barometer: 29.76 inHg , 1007.8 hPa
Summary: Mist
Clouds: Overcast
Visibility: 5 miles , 8 km
Cloud details: Overcast 600 ft
2017/04/26 03:35 KCJR 260335Z AUTO 35006KT 5SM BR OVC006 15/14 A2976 RMK AO2 T01450144